22 Sep 2018 19:37 UTC 2018265+19:37 UTC

Overview Datums Bench Marks Data Query Site Visit Daily QC Messages Attributes

079: SALT08

27° 52' 14" N   97° 31' 3" W
SALT08
City of Corpus Christi Salinity Monitoring Salinity

Station Information

SALT08
SALT08
more pictures
 
Station Name:SALT08
DNR ID:079
Location:27° 52' 14" N, 97° 31' 3" W

Water Level Forecasts

Latest Observations

Series Metric English Marine Observed at
Water Temperature 30.4 °C 86.7 °F 86.7 °F Sep 22 14:24 CDT
00h08m ago
Salinity 7.300 psu 7.300 psu 7.300 psu Sep 22 14:24 CDT
00h08m ago

Maps

SALT08
All Stations in Area
Entire Network
 

Recent Observations

Date/Time Water
Temp (°F)
Sal (psu)
Sep 22 14:00 CDT 86.4 7.200
Sep 22 13:00 CDT 85.6 7.200
Sep 22 12:00 CDT 84.2 7.500
Sep 22 11:00 CDT 83.5 7.300
Sep 22 10:00 CDT 83.3 7.200
Sep 22 09:00 CDT 82.9 7.300
Sep 22 08:00 CDT 82.9 7.200
Sep 22 07:00 CDT 83.3 7.600
Sep 22 06:00 CDT 83.5 7.200
Sep 22 05:00 CDT 83.8 7.200
Sep 22 04:00 CDT 84.0 7.300
Sep 22 03:00 CDT 84.2 7.200
Sep 22 02:00 CDT 84.6 7.600
Sep 22 01:00 CDT 84.9 7.900
Sep 22 00:00 CDT 85.5 7.900
Sep 21 23:00 CDT 86.0 8.200
Sep 21 22:00 CDT 86.5 8.000
Sep 21 21:00 CDT 87.3 6.100
Sep 21 20:00 CDT 88.2 8.400
Sep 21 19:00 CDT 88.3 8.000
Sep 21 18:00 CDT 88.3 8.400
Sep 21 17:00 CDT 87.3 9.300
Sep 21 16:00 CDT 86.2 9.600
Sep 21 15:00 CDT 86.7 9.700
Sep 21 14:00 CDT 83.5 7.300

Historical Data Availability